createdAt,value
2022-12-02T00:00:24.211Z,1014.22
2022-12-02T00:01:24.291Z,1014.26
2022-12-02T00:02:24.241Z,1014.24
2022-12-02T00:03:23.457Z,1014.26
2022-12-02T00:04:23.415Z,1014.26
2022-12-02T00:05:23.301Z,1014.25
2022-12-02T00:06:23.301Z,1014.26
2022-12-02T00:07:23.359Z,1014.26
2022-12-02T00:08:23.309Z,1014.27
2022-12-02T00:09:24.079Z,1014.28
2022-12-02T00:10:23.328Z,1014.28
2022-12-02T00:11:23.328Z,1014.29
2022-12-02T00:12:23.251Z,1014.32
2022-12-02T00:13:23.367Z,1014.33
2022-12-02T00:14:23.284Z,1014.27
2022-12-02T00:15:23.377Z,1014.23
2022-12-02T00:16:23.511Z,1014.25
2022-12-02T00:17:23.217Z,1014.23
2022-12-02T00:18:23.208Z,1014.25
2022-12-02T00:19:23.227Z,1014.22
2022-12-02T00:20:23.197Z,1014.27
2022-12-02T00:21:23.197Z,1014.27
2022-12-02T00:22:23.208Z,1014.26
2022-12-02T00:23:23.214Z,1014.23
2022-12-02T00:24:23.205Z,1014.22
2022-12-02T00:25:23.225Z,1014.21
2022-12-02T00:26:23.155Z,1014.19
2022-12-02T00:27:23.154Z,1014.24
2022-12-02T00:28:23.146Z,1014.19
2022-12-02T00:29:23.159Z,1014.18
2022-12-02T00:30:23.134Z,1014.18
2022-12-02T00:31:23.163Z,1014.16
2022-12-02T00:32:23.113Z,1014.17
2022-12-02T00:33:23.111Z,1014.14
2022-12-02T00:34:23.321Z,1014.14
2022-12-02T00:35:23.120Z,1014.14
2022-12-02T00:36:23.094Z,1014.14
2022-12-02T00:37:23.140Z,1014.12
2022-12-02T00:38:23.071Z,1014.14
2022-12-02T00:39:23.089Z,1014.10
2022-12-02T00:40:23.061Z,1014.17
2022-12-02T00:41:23.051Z,1014.09
2022-12-02T00:42:23.151Z,1014.11
2022-12-02T00:43:23.560Z,1014.11
2022-12-02T00:44:23.061Z,1014.07
2022-12-02T00:45:23.099Z,1014.14
2022-12-02T00:46:23.045Z,1014.10
2022-12-02T00:47:23.172Z,1014.10
2022-12-02T00:48:23.012Z,1014.09
2022-12-02T00:49:23.189Z,1014.09
2022-12-02T00:50:23.000Z,1014.04
2022-12-02T00:51:23.010Z,1014.07
2022-12-02T00:52:22.978Z,1014.07
2022-12-02T00:53:22.977Z,1014.01
2022-12-02T00:54:23.007Z,1014.04
2022-12-02T00:55:22.968Z,1014.02
2022-12-02T00:56:22.956Z,1014.01
2022-12-02T00:57:22.963Z,1014.02
2022-12-02T00:58:22.946Z,1013.99
2022-12-02T00:59:22.963Z,1013.97
2022-12-02T01:00:22.936Z,1013.99
2022-12-02T01:01:23.047Z,1013.99
2022-12-02T01:02:22.956Z,1013.96
2022-12-02T01:03:22.943Z,1013.97
2022-12-02T01:04:22.915Z,1013.91
2022-12-02T01:05:22.901Z,1013.93
2022-12-02T01:06:23.156Z,1013.94
2022-12-02T01:07:23.688Z,1013.87
2022-12-02T01:08:22.905Z,1013.84
2022-12-02T01:09:22.922Z,1013.94
2022-12-02T01:10:23.643Z,1013.98
2022-12-02T01:11:22.874Z,1013.95
2022-12-02T01:12:22.851Z,1013.91
2022-12-02T01:13:22.863Z,1013.89
2022-12-02T01:14:22.880Z,1013.92
2022-12-02T01:15:22.846Z,1013.90
2022-12-02T01:16:23.821Z,1013.94
2022-12-02T01:17:22.830Z,1013.91
2022-12-02T01:18:22.827Z,1013.89
2022-12-02T01:19:23.777Z,1013.92
2022-12-02T01:20:22.813Z,1013.92
2022-12-02T01:21:22.807Z,1013.85
2022-12-02T01:22:22.801Z,1013.86
2022-12-02T01:23:22.837Z,1013.90
2022-12-02T01:24:23.839Z,1013.86
2022-12-02T01:25:22.979Z,1013.87
2022-12-02T01:26:22.769Z,1013.78
2022-12-02T01:27:22.773Z,1013.87
2022-12-02T01:28:22.756Z,1013.89
2022-12-02T01:29:22.974Z,1013.88
2022-12-02T01:30:22.743Z,1013.89
2022-12-02T01:31:22.781Z,1013.89
2022-12-02T01:32:22.737Z,1013.87
2022-12-02T01:33:22.727Z,1013.89
2022-12-02T01:34:22.724Z,1013.96
2022-12-02T01:35:22.706Z,1013.85
2022-12-02T01:36:22.696Z,1013.88
2022-12-02T01:37:22.699Z,1013.86
2022-12-02T01:38:22.816Z,1013.89
2022-12-02T01:39:22.746Z,1013.90
2022-12-02T01:40:22.678Z,1013.85
2022-12-02T01:41:22.664Z,1013.85
2022-12-02T01:42:22.661Z,1013.84
2022-12-02T01:43:22.664Z,1013.80
2022-12-02T01:44:22.663Z,1013.80
2022-12-02T01:45:22.645Z,1013.87
2022-12-02T01:46:22.683Z,1013.83
2022-12-02T01:47:22.893Z,1013.80
2022-12-02T01:48:22.622Z,1013.80
2022-12-02T01:49:22.700Z,1013.84
2022-12-02T01:50:22.898Z,1013.83
2022-12-02T01:51:22.609Z,1013.82
2022-12-02T01:52:22.591Z,1013.79
2022-12-02T01:53:22.612Z,1013.83
2022-12-02T01:54:22.601Z,1013.82
2022-12-02T01:55:22.624Z,1013.84
2022-12-02T01:56:22.574Z,1013.91
2022-12-02T01:57:22.568Z,1013.87
2022-12-02T01:58:22.567Z,1013.83
2022-12-02T01:59:22.740Z,1013.87
2022-12-02T02:00:22.548Z,1013.86
2022-12-02T02:01:22.704Z,1013.89
2022-12-02T02:02:22.620Z,1013.88
2022-12-02T02:03:22.590Z,1013.89
2022-12-02T02:04:22.829Z,1013.85
2022-12-02T02:05:22.531Z,1013.90
2022-12-02T02:06:22.509Z,1013.85
2022-12-02T02:07:22.559Z,1013.85
2022-12-02T02:08:22.500Z,1013.87
2022-12-02T02:09:22.587Z,1013.81
2022-12-02T02:10:22.496Z,1013.86
2022-12-02T02:11:22.478Z,1013.77
2022-12-02T02:12:22.662Z,1013.77
2022-12-02T02:13:22.543Z,1013.76
2022-12-02T02:14:22.599Z,1013.77
2022-12-02T02:15:22.485Z,1013.82
2022-12-02T02:16:22.497Z,1013.79
2022-12-02T02:17:22.445Z,1013.75
2022-12-02T02:18:22.443Z,1013.79
2022-12-02T02:19:22.594Z,1013.75
2022-12-02T02:20:22.413Z,1013.75
2022-12-02T02:21:22.414Z,1013.70
2022-12-02T02:22:22.407Z,1013.68
2022-12-02T02:23:22.404Z,1013.74
2022-12-02T02:24:22.411Z,1013.72
2022-12-02T02:25:22.402Z,1013.62
2022-12-02T02:26:22.373Z,1013.64
2022-12-02T02:27:22.381Z,1013.66
2022-12-02T02:28:22.362Z,1013.62
2022-12-02T02:29:22.391Z,1013.61
2022-12-02T02:30:22.392Z,1013.62
2022-12-02T02:31:22.505Z,1013.65
2022-12-02T02:32:23.009Z,1013.61
2022-12-02T02:33:22.350Z,1013.63
2022-12-02T02:34:22.351Z,1013.59
2022-12-02T02:35:22.326Z,1013.65
2022-12-02T02:36:22.309Z,1013.59
2022-12-02T02:37:22.309Z,1013.59
2022-12-02T02:38:22.305Z,1013.61
2022-12-02T02:39:22.317Z,1013.56
2022-12-02T02:40:22.298Z,1013.53
2022-12-02T02:41:22.305Z,1013.54
2022-12-02T02:42:22.268Z,1013.54
2022-12-02T02:43:22.276Z,1013.47
2022-12-02T02:44:25.670Z,1013.48
2022-12-02T02:45:22.276Z,1013.50
2022-12-02T02:46:22.436Z,1013.45
2022-12-02T02:47:22.249Z,1013.48
2022-12-02T02:48:22.237Z,1013.52
2022-12-02T02:49:22.288Z,1013.50
2022-12-02T02:50:22.235Z,1013.48
2022-12-02T02:51:22.515Z,1013.47
2022-12-02T02:52:22.344Z,1013.48
2022-12-02T02:53:22.524Z,1013.52
2022-12-02T02:54:22.534Z,1013.47
2022-12-02T02:55:22.558Z,1013.47
2022-12-02T02:56:22.586Z,1013.49
2022-12-02T02:57:22.562Z,1013.42
2022-12-02T02:58:22.575Z,1013.39
2022-12-02T02:59:22.773Z,1013.41
2022-12-02T03:00:22.783Z,1013.42
2022-12-02T03:01:22.860Z,1013.40
2022-12-02T03:02:22.846Z,1013.41
2022-12-02T03:03:22.822Z,1013.40
2022-12-02T03:04:22.849Z,1013.31
2022-12-02T03:05:22.838Z,1013.39
2022-12-02T03:06:22.829Z,1013.28
2022-12-02T03:07:22.881Z,1013.35
2022-12-02T03:08:22.971Z,1013.28
2022-12-02T03:09:22.840Z,1013.33
2022-12-02T03:10:22.860Z,1013.32
2022-12-02T03:11:22.441Z,1013.26
2022-12-02T03:12:23.071Z,1013.25
2022-12-02T03:13:22.868Z,1013.28
2022-12-02T03:14:22.958Z,1013.19
2022-12-02T03:15:23.088Z,1013.26
2022-12-02T03:16:23.085Z,1013.20
2022-12-02T03:17:22.936Z,1013.27
2022-12-02T03:18:23.086Z,1013.23
2022-12-02T03:19:22.097Z,1013.26
2022-12-02T03:20:22.104Z,1013.18
2022-12-02T03:21:22.116Z,1013.23
2022-12-02T03:22:22.116Z,1013.21
2022-12-02T03:23:22.123Z,1013.25
2022-12-02T03:24:22.334Z,1013.19
2022-12-02T03:25:22.343Z,1013.20
2022-12-02T03:26:22.354Z,1013.17
2022-12-02T03:27:22.361Z,1013.17
2022-12-02T03:28:22.368Z,1013.15
2022-12-02T03:29:22.584Z,1013.16
2022-12-02T03:30:22.004Z,1013.14
2022-12-02T03:31:22.064Z,1013.15
2022-12-02T03:32:22.405Z,1013.16
2022-12-02T03:33:22.614Z,1013.12
2022-12-02T03:34:22.824Z,1013.12
2022-12-02T03:35:22.824Z,1013.08
2022-12-02T03:36:22.841Z,1013.14
2022-12-02T03:37:22.022Z,1013.11
2022-12-02T03:38:22.842Z,1013.05
2022-12-02T03:39:22.862Z,1013.09
2022-12-02T03:40:22.772Z,1013.08
2022-12-02T03:41:22.483Z,1013.04
2022-12-02T03:42:22.839Z,1013.04
2022-12-02T03:43:22.471Z,1013.05
2022-12-02T03:44:21.890Z,1013.05
2022-12-02T03:45:21.872Z,1013.07
2022-12-02T03:46:22.823Z,1013.03
2022-12-02T03:47:22.036Z,1013.03
2022-12-02T03:48:22.111Z,1013.01
2022-12-02T03:49:22.428Z,1013.03
2022-12-02T03:50:21.903Z,1013.02
2022-12-02T03:51:21.828Z,1013.03
2022-12-02T03:52:22.898Z,1013.04
2022-12-02T03:53:22.797Z,1013.07
2022-12-02T03:54:22.706Z,1012.98
2022-12-02T03:55:21.937Z,1012.96
2022-12-02T03:56:22.150Z,1012.99
2022-12-02T03:57:21.947Z,1012.97
2022-12-02T03:58:21.786Z,1013.02
2022-12-02T03:59:21.858Z,1013.00
2022-12-02T04:00:21.872Z,1012.99
2022-12-02T04:01:21.996Z,1013.04
2022-12-02T04:02:21.800Z,1012.98
2022-12-02T04:03:22.095Z,1012.99
2022-12-02T04:04:22.106Z,1012.96
2022-12-02T04:05:22.113Z,1012.97
2022-12-02T04:06:21.934Z,1012.98
2022-12-02T04:07:21.951Z,1012.90
2022-12-02T04:08:21.745Z,1012.84
2022-12-02T04:09:22.342Z,1012.84
2022-12-02T04:10:21.741Z,1012.87
2022-12-02T04:11:21.706Z,1012.88
2022-12-02T04:12:22.471Z,1012.86
2022-12-02T04:13:21.682Z,1012.88
2022-12-02T04:14:22.572Z,1012.81
2022-12-02T04:15:22.591Z,1012.81
2022-12-02T04:16:21.720Z,1012.77
2022-12-02T04:17:22.323Z,1012.76
2022-12-02T04:18:22.301Z,1012.83
2022-12-02T04:19:21.751Z,1012.81
2022-12-02T04:20:22.520Z,1012.79
2022-12-02T04:21:22.684Z,1012.75
2022-12-02T04:22:22.130Z,1012.78
2022-12-02T04:23:22.483Z,1012.74
2022-12-02T04:24:22.640Z,1012.71
2022-12-02T04:25:23.068Z,1012.74
2022-12-02T04:26:22.448Z,1012.68
2022-12-02T04:27:21.656Z,1012.73
2022-12-02T04:28:22.511Z,1012.69
2022-12-02T04:29:21.580Z,1012.70
2022-12-02T04:30:22.568Z,1012.72
2022-12-02T04:31:22.025Z,1012.72
2022-12-02T04:32:21.587Z,1012.67
2022-12-02T04:33:22.526Z,1012.68
2022-12-02T04:34:21.617Z,1012.68
2022-12-02T04:35:21.597Z,1012.71
2022-12-02T04:36:21.606Z,1012.70
2022-12-02T04:37:21.588Z,1012.71
2022-12-02T04:38:21.766Z,1012.74
2022-12-02T04:39:21.754Z,1012.62
2022-12-02T04:40:21.534Z,1012.63
2022-12-02T04:41:21.853Z,1012.66
2022-12-02T04:42:21.964Z,1012.66
2022-12-02T04:43:21.482Z,1012.70
2022-12-02T04:44:21.487Z,1012.67
2022-12-02T04:45:21.484Z,1012.69
2022-12-02T04:46:21.528Z,1012.63
2022-12-02T04:47:21.461Z,1012.62
2022-12-02T04:48:21.533Z,1012.68
2022-12-02T04:49:21.501Z,1012.75
2022-12-02T04:50:21.454Z,1012.66
2022-12-02T04:51:21.441Z,1012.70
2022-12-02T04:52:21.532Z,1012.71
2022-12-02T04:53:21.523Z,1012.67
2022-12-02T04:54:21.413Z,1012.67
2022-12-02T04:55:21.414Z,1012.63
2022-12-02T04:56:21.410Z,1012.65
2022-12-02T04:57:24.287Z,1012.65
2022-12-02T04:58:21.450Z,1012.65
2022-12-02T04:59:21.379Z,1012.65
2022-12-02T05:00:21.389Z,1012.63
2022-12-02T05:01:21.360Z,1012.66
2022-12-02T05:02:21.399Z,1012.63
2022-12-02T05:03:21.511Z,1012.63
2022-12-02T05:04:21.388Z,1012.61
2022-12-02T05:05:21.377Z,1012.64
2022-12-02T05:06:21.358Z,1012.63
2022-12-02T05:07:21.361Z,1012.66
2022-12-02T05:08:21.338Z,1012.63
2022-12-02T05:09:21.345Z,1012.62
2022-12-02T05:10:21.749Z,1012.60
2022-12-02T05:11:21.303Z,1012.63
2022-12-02T05:13:47.254Z,1012.60
2022-12-02T05:14:47.244Z,1012.67
2022-12-02T05:15:47.285Z,1012.57
2022-12-02T05:16:47.701Z,1012.63
2022-12-02T05:17:47.233Z,1012.56
2022-12-02T05:18:47.223Z,1012.60
2022-12-02T05:19:47.220Z,1012.63
2022-12-02T05:20:47.221Z,1012.58
2022-12-02T05:21:47.210Z,1012.58
2022-12-02T05:22:47.949Z,1012.54
2022-12-02T05:23:47.201Z,1012.59
2022-12-02T05:24:47.330Z,1012.54
2022-12-02T05:25:47.206Z,1012.55
2022-12-02T05:26:47.178Z,1012.52
2022-12-02T05:27:47.177Z,1012.51
2022-12-02T05:28:47.178Z,1012.49
2022-12-02T05:29:47.166Z,1012.51
2022-12-02T05:30:47.795Z,1012.55
2022-12-02T05:31:47.223Z,1012.54
2022-12-02T05:32:47.137Z,1012.52
2022-12-02T05:33:47.129Z,1012.48
2022-12-02T05:34:47.238Z,1012.50
2022-12-02T05:35:47.318Z,1012.52
2022-12-02T05:36:47.146Z,1012.51
2022-12-02T05:37:47.159Z,1012.49
2022-12-02T05:38:47.097Z,1012.48
2022-12-02T05:39:47.087Z,1012.45
2022-12-02T05:40:47.205Z,1012.48
2022-12-02T05:41:47.081Z,1012.43
2022-12-02T05:42:47.064Z,1012.50
2022-12-02T05:43:47.064Z,1012.43
2022-12-02T05:44:47.217Z,1012.41
2022-12-02T05:45:47.064Z,1012.46
2022-12-02T05:46:47.107Z,1012.48
2022-12-02T05:47:47.043Z,1012.48
2022-12-02T05:48:47.251Z,1012.48
2022-12-02T05:49:47.243Z,1012.47
2022-12-02T05:50:47.042Z,1012.52
2022-12-02T05:51:49.817Z,1012.46
2022-12-02T05:52:47.062Z,1012.46
2022-12-02T05:53:47.071Z,1012.50
2022-12-02T05:54:47.081Z,1012.49
2022-12-02T05:55:47.182Z,1012.48
2022-12-02T05:56:47.302Z,1012.51
2022-12-02T05:57:46.992Z,1012.49
2022-12-02T05:58:47.338Z,1012.53
2022-12-02T05:59:47.531Z,1012.51
2022-12-02T06:00:47.072Z,1012.56
2022-12-02T06:01:47.217Z,1012.50
2022-12-02T06:02:47.101Z,1012.56
2022-12-02T06:03:47.139Z,1012.52
2022-12-02T06:04:46.958Z,1012.54
2022-12-02T06:05:46.951Z,1012.53
2022-12-02T06:06:47.348Z,1012.55
2022-12-02T06:07:47.431Z,1012.55
2022-12-02T06:08:47.568Z,1012.56
2022-12-02T06:09:46.968Z,1012.59
2022-12-02T06:10:47.187Z,1012.51
2022-12-02T06:11:47.176Z,1012.59
2022-12-02T06:12:47.325Z,1012.56
2022-12-02T06:13:46.906Z,1012.58
2022-12-02T06:14:47.156Z,1012.63
2022-12-02T06:15:47.618Z,1012.59
2022-12-02T06:16:47.017Z,1012.60
2022-12-02T06:17:47.024Z,1012.60
2022-12-02T06:18:47.225Z,1012.63
2022-12-02T06:19:47.233Z,1012.63
2022-12-02T06:20:46.853Z,1012.62
2022-12-02T06:21:46.841Z,1012.55
2022-12-02T06:22:47.556Z,1012.60
2022-12-02T06:23:47.063Z,1012.66
2022-12-02T06:24:47.544Z,1012.58
2022-12-02T06:25:47.475Z,1012.61
2022-12-02T06:26:47.203Z,1012.60
2022-12-02T06:27:46.802Z,1012.65
2022-12-02T06:28:46.813Z,1012.63
2022-12-02T06:29:46.890Z,1012.61
2022-12-02T06:30:46.901Z,1012.64
2022-12-02T06:31:46.957Z,1012.62
2022-12-02T06:32:46.921Z,1012.60
2022-12-02T06:33:46.748Z,1012.62
2022-12-02T06:34:46.928Z,1012.62
2022-12-02T06:35:47.002Z,1012.72
2022-12-02T06:36:46.745Z,1012.65
2022-12-02T06:37:46.746Z,1012.70
2022-12-02T06:38:46.738Z,1012.66
2022-12-02T06:40:19.446Z,1012.69
2022-12-02T06:40:46.769Z,1012.67
2022-12-02T06:41:46.758Z,1012.64
2022-12-02T06:42:46.765Z,1012.64
2022-12-02T06:43:46.776Z,1012.68
2022-12-02T06:44:46.776Z,1012.65
2022-12-02T06:45:47.165Z,1012.66
2022-12-02T06:46:46.819Z,1012.65
2022-12-02T06:47:46.676Z,1012.67
2022-12-02T06:48:46.806Z,1012.62
2022-12-02T06:49:46.645Z,1012.62
2022-12-02T06:50:46.826Z,1012.64
2022-12-02T06:51:46.825Z,1012.59
2022-12-02T06:52:46.835Z,1012.66
2022-12-02T06:53:46.855Z,1012.67
2022-12-02T06:54:46.884Z,1012.67
2022-12-02T06:55:46.858Z,1012.66
2022-12-02T06:56:46.862Z,1012.65
2022-12-02T06:57:46.864Z,1012.69
2022-12-02T06:58:46.876Z,1012.67
2022-12-02T06:59:46.882Z,1012.69
2022-12-02T07:00:46.661Z,1012.67
2022-12-02T07:01:46.624Z,1012.69
2022-12-02T07:02:46.734Z,1012.64
2022-12-02T07:03:46.904Z,1012.63
2022-12-02T07:04:46.540Z,1012.67
2022-12-02T07:05:46.921Z,1012.67
2022-12-02T07:06:46.531Z,1012.68
2022-12-02T07:07:46.583Z,1012.62
2022-12-02T07:08:46.570Z,1012.65
2022-12-02T07:09:46.533Z,1012.62
2022-12-02T07:10:46.569Z,1012.71
2022-12-02T07:11:46.758Z,1012.66
2022-12-02T07:12:46.768Z,1012.65
2022-12-02T07:13:46.801Z,1012.67
2022-12-02T07:14:46.778Z,1012.62
2022-12-02T07:15:46.600Z,1012.68
2022-12-02T07:16:46.557Z,1012.61
2022-12-02T07:17:46.788Z,1012.61
2022-12-02T07:18:46.448Z,1012.59
2022-12-02T07:19:46.806Z,1012.60
2022-12-02T07:20:46.606Z,1012.60
2022-12-02T07:21:51.836Z,1012.61
2022-12-02T07:22:46.427Z,1012.58
2022-12-02T07:23:46.426Z,1012.65
2022-12-02T07:24:46.445Z,1012.62
2022-12-02T07:25:46.486Z,1012.64
2022-12-02T07:26:46.437Z,1012.61
2022-12-02T07:27:46.453Z,1012.65
2022-12-02T07:28:46.466Z,1012.63
2022-12-02T07:29:46.454Z,1012.65
2022-12-02T07:30:46.415Z,1012.63
2022-12-02T07:31:46.431Z,1012.66
2022-12-02T07:32:46.482Z,1012.56
2022-12-02T07:33:46.483Z,1012.60
2022-12-02T07:34:46.427Z,1012.64
2022-12-02T07:35:46.571Z,1012.61
2022-12-02T07:36:46.351Z,1012.58
2022-12-02T07:37:46.331Z,1012.59
2022-12-02T07:39:46.522Z,1012.56
2022-12-02T07:40:46.311Z,1012.59
2022-12-02T07:41:46.541Z,1012.58
2022-12-02T07:42:46.549Z,1012.55
2022-12-02T07:43:46.560Z,1012.53
2022-12-02T07:44:46.291Z,1012.58
2022-12-02T07:45:46.321Z,1012.58
2022-12-02T07:46:46.769Z,1012.59
2022-12-02T07:47:46.370Z,1012.60
2022-12-02T07:48:46.372Z,1012.60
2022-12-02T07:49:46.380Z,1012.63
2022-12-02T07:50:46.598Z,1012.65
2022-12-02T07:51:46.603Z,1012.58
2022-12-02T07:52:46.248Z,1012.61
2022-12-02T07:53:46.247Z,1012.58
2022-12-02T07:54:46.427Z,1012.57
2022-12-02T07:55:46.357Z,1012.60
2022-12-02T07:56:46.470Z,1012.60
2022-12-02T07:57:46.856Z,1012.63
2022-12-02T07:59:46.867Z,1012.52
2022-12-02T08:00:46.195Z,1012.58
2022-12-02T08:01:46.287Z,1012.58
2022-12-02T08:02:46.475Z,1012.61
2022-12-02T08:03:46.689Z,1012.56
2022-12-02T08:04:46.952Z,1012.54
2022-12-02T08:05:46.734Z,1012.55
2022-12-02T08:06:46.494Z,1012.60
2022-12-02T08:07:46.594Z,1012.65
2022-12-02T08:08:46.144Z,1012.62
2022-12-02T08:09:46.213Z,1012.56
2022-12-02T08:10:46.462Z,1012.59
2022-12-02T08:11:46.170Z,1012.63
2022-12-02T08:12:46.323Z,1012.56
2022-12-02T08:13:46.383Z,1012.53
2022-12-02T08:14:46.340Z,1012.63
2022-12-02T08:15:49.821Z,1012.59
2022-12-02T08:16:46.590Z,1012.59
2022-12-02T08:17:46.097Z,1012.61
2022-12-02T08:18:46.362Z,1012.51
2022-12-02T08:19:46.783Z,1012.51
2022-12-02T08:20:46.061Z,1012.51
2022-12-02T08:21:46.061Z,1012.51
2022-12-02T08:22:46.059Z,1012.50
2022-12-02T08:23:46.048Z,1012.53
2022-12-02T08:24:46.069Z,1012.54
2022-12-02T08:25:46.061Z,1012.52
2022-12-02T08:26:46.031Z,1012.53
2022-12-02T08:27:46.050Z,1012.49
2022-12-02T08:28:48.403Z,1012.49
2022-12-02T08:29:46.025Z,1012.49
2022-12-02T08:30:46.203Z,1012.41
2022-12-02T08:31:46.047Z,1012.43
2022-12-02T08:32:46.458Z,1012.38
2022-12-02T08:33:46.057Z,1012.42
2022-12-02T08:34:46.067Z,1012.39
2022-12-02T08:35:45.967Z,1012.44
2022-12-02T08:36:46.075Z,1012.40
2022-12-02T08:37:46.076Z,1012.43
2022-12-02T08:38:46.294Z,1012.43
2022-12-02T08:39:46.037Z,1012.43
2022-12-02T08:40:46.515Z,1012.50
2022-12-02T08:41:46.525Z,1012.42
2022-12-02T08:42:46.534Z,1012.42
2022-12-02T08:43:45.922Z,1012.41
2022-12-02T08:44:46.394Z,1012.49
2022-12-02T08:45:46.621Z,1012.42
2022-12-02T08:46:52.627Z,1012.46
2022-12-02T08:47:45.943Z,1012.55
2022-12-02T08:48:46.575Z,1012.52
2022-12-02T08:49:45.953Z,1012.57
2022-12-02T08:50:45.882Z,1012.53
2022-12-02T08:51:46.591Z,1012.53
2022-12-02T08:52:46.591Z,1012.56
2022-12-02T08:53:45.981Z,1012.49
2022-12-02T08:54:46.611Z,1012.51
2022-12-02T08:55:45.923Z,1012.52
2022-12-02T08:56:46.473Z,1012.58
2022-12-02T08:57:46.623Z,1012.54
2022-12-02T08:58:45.819Z,1012.56
2022-12-02T08:59:45.823Z,1012.54
2022-12-02T09:00:45.818Z,1012.56
2022-12-02T09:01:45.888Z,1012.58
2022-12-02T09:02:45.988Z,1012.64
2022-12-02T09:03:45.899Z,1012.60
2022-12-02T09:04:46.058Z,1012.61
2022-12-02T09:05:46.080Z,1012.60
2022-12-02T09:06:46.070Z,1012.57
2022-12-02T09:07:45.901Z,1012.55
2022-12-02T09:08:46.171Z,1012.57
2022-12-02T09:09:46.087Z,1012.63
2022-12-02T09:10:46.433Z,1012.64
2022-12-02T09:11:45.734Z,1012.60
2022-12-02T09:12:45.769Z,1012.66
2022-12-02T09:13:45.906Z,1012.63
2022-12-02T09:14:45.977Z,1012.67
2022-12-02T09:15:45.756Z,1012.65
2022-12-02T09:16:45.785Z,1012.66
2022-12-02T09:17:46.016Z,1012.68
2022-12-02T09:18:46.554Z,1012.63
2022-12-02T09:19:45.944Z,1012.69
2022-12-02T09:20:46.033Z,1012.66
2022-12-02T09:21:45.953Z,1012.65
2022-12-02T09:22:46.376Z,1012.66
2022-12-02T09:23:50.358Z,1012.59
2022-12-02T09:24:45.851Z,1012.68
2022-12-02T09:25:46.485Z,1012.66
2022-12-02T09:26:45.993Z,1012.66
2022-12-02T09:27:46.272Z,1012.64
2022-12-02T09:28:45.885Z,1012.60
2022-12-02T09:29:46.213Z,1012.65
2022-12-02T09:30:45.660Z,1012.59
2022-12-02T09:31:46.020Z,1012.68
2022-12-02T09:32:45.640Z,1012.65
2022-12-02T09:33:46.099Z,1012.62
2022-12-02T09:34:46.247Z,1012.61
2022-12-02T09:35:46.458Z,1012.61
2022-12-02T09:36:46.451Z,1012.58
2022-12-02T09:37:45.618Z,1012.67
2022-12-02T09:38:45.578Z,1012.66
2022-12-02T09:39:45.577Z,1012.60
2022-12-02T09:40:45.667Z,1012.60
2022-12-02T09:41:45.678Z,1012.61
2022-12-02T09:42:45.759Z,1012.64
2022-12-02T09:43:45.556Z,1012.67
2022-12-02T09:44:45.896Z,1012.58
2022-12-02T09:45:45.905Z,1012.65
2022-12-02T09:46:46.017Z,1012.61
2022-12-02T09:47:45.929Z,1012.63
2022-12-02T09:48:45.737Z,1012.61
2022-12-02T09:49:45.937Z,1012.67
2022-12-02T09:50:45.505Z,1012.70
2022-12-02T09:51:45.455Z,1012.68
2022-12-02T09:52:45.955Z,1012.71
2022-12-02T09:53:45.555Z,1012.63
2022-12-02T09:54:45.463Z,1012.66
2022-12-02T09:55:45.441Z,1012.65
2022-12-02T09:56:45.653Z,1012.66
2022-12-02T09:57:45.452Z,1012.57
2022-12-02T09:58:45.507Z,1012.73
2022-12-02T09:59:45.463Z,1012.70
2022-12-02T10:00:45.442Z,1012.65
2022-12-02T10:01:45.457Z,1012.67
2022-12-02T10:02:45.548Z,1012.63
2022-12-02T10:03:45.504Z,1012.59
2022-12-02T10:04:45.503Z,1012.59
2022-12-02T10:05:45.430Z,1012.58
2022-12-02T10:06:45.431Z,1012.56
2022-12-02T10:07:45.556Z,1012.54
2022-12-02T10:08:45.560Z,1012.58
2022-12-02T10:09:45.472Z,1012.57
2022-12-02T10:10:45.341Z,1012.53
2022-12-02T10:11:45.669Z,1012.60
2022-12-02T10:12:45.682Z,1012.56
2022-12-02T10:13:45.561Z,1012.50
2022-12-02T10:14:45.316Z,1012.55
2022-12-02T10:15:45.330Z,1012.55
2022-12-02T10:16:45.307Z,1012.51
2022-12-02T10:17:45.386Z,1012.49
2022-12-02T10:18:45.394Z,1012.50
2022-12-02T10:19:45.308Z,1012.51
2022-12-02T10:20:45.526Z,1012.53
2022-12-02T10:21:45.650Z,1012.51
2022-12-02T10:22:45.334Z,1012.55
2022-12-02T10:23:45.427Z,1012.49
2022-12-02T10:24:45.245Z,1012.53
2022-12-02T10:25:45.444Z,1012.51
2022-12-02T10:26:45.689Z,1012.47
2022-12-02T10:27:45.903Z,1012.48
2022-12-02T10:28:45.894Z,1012.46
2022-12-02T10:29:51.468Z,1012.39
2022-12-02T10:30:45.280Z,1012.40
2022-12-02T10:31:45.287Z,1012.35
2022-12-02T10:32:45.864Z,1012.38
2022-12-02T10:33:45.212Z,1012.34
2022-12-02T10:34:45.502Z,1012.33
2022-12-02T10:35:45.613Z,1012.32
2022-12-02T10:36:45.704Z,1012.23
2022-12-02T10:37:45.300Z,1012.25
2022-12-02T10:38:45.942Z,1012.26
2022-12-02T10:39:45.449Z,1012.24
2022-12-02T10:40:45.342Z,1012.20
2022-12-02T10:41:45.140Z,1012.23
2022-12-02T10:42:45.461Z,1012.19
2022-12-02T10:43:45.680Z,1012.31
2022-12-02T10:44:45.684Z,1012.27
2022-12-02T10:45:45.169Z,1012.26
2022-12-02T10:46:45.222Z,1012.26
2022-12-02T10:47:45.700Z,1012.23
2022-12-02T10:48:45.111Z,1012.28
2022-12-02T10:49:45.198Z,1012.22
2022-12-02T10:50:45.818Z,1012.22
2022-12-02T10:51:45.308Z,1012.24
2022-12-02T10:52:45.118Z,1012.20
2022-12-02T10:53:45.220Z,1012.20
2022-12-02T10:54:45.057Z,1012.15
2022-12-02T10:55:46.506Z,1012.20
2022-12-02T10:56:45.088Z,1012.20
2022-12-02T10:57:45.198Z,1012.15
2022-12-02T10:58:45.026Z,1012.19
2022-12-02T10:59:45.046Z,1012.16
2022-12-02T11:00:45.075Z,1012.16
2022-12-02T11:01:45.063Z,1012.15
2022-12-02T11:02:45.063Z,1012.20
2022-12-02T11:03:45.004Z,1012.12
2022-12-02T11:04:45.005Z,1012.13
2022-12-02T11:05:44.975Z,1012.15
2022-12-02T11:06:44.973Z,1012.12
2022-12-02T11:07:45.082Z,1012.14
2022-12-02T11:08:45.125Z,1012.13
2022-12-02T11:09:45.124Z,1012.14
2022-12-02T11:10:45.034Z,1012.14
2022-12-02T11:11:44.935Z,1012.12
2022-12-02T11:12:44.944Z,1012.17
2022-12-02T11:13:47.896Z,1012.14
2022-12-02T11:14:44.961Z,1012.17
2022-12-02T11:15:44.956Z,1012.15
2022-12-02T11:16:53.485Z,1012.12
2022-12-02T11:17:44.983Z,1012.15
2022-12-02T11:18:44.892Z,1012.10
2022-12-02T11:19:44.901Z,1012.11
2022-12-02T11:20:44.879Z,1012.13
2022-12-02T11:21:44.891Z,1012.08
2022-12-02T11:22:44.880Z,1012.08
2022-12-02T11:23:44.885Z,1012.13
2022-12-02T11:24:44.943Z,1012.08
2022-12-02T11:25:44.954Z,1012.11
2022-12-02T11:26:45.051Z,1012.09
2022-12-02T11:27:45.050Z,1012.01
2022-12-02T11:28:45.049Z,1012.10
2022-12-02T11:29:44.939Z,1012.09
2022-12-02T11:30:44.858Z,1012.11
2022-12-02T11:31:45.095Z,1012.02
2022-12-02T11:32:44.867Z,1012.11
2022-12-02T11:33:48.832Z,1012.09
2022-12-02T11:35:44.991Z,1012.07
2022-12-02T11:36:44.776Z,1012.08
2022-12-02T11:37:44.793Z,1012.07
2022-12-02T11:38:45.003Z,1012.10
2022-12-02T11:39:48.779Z,1012.07
2022-12-02T11:40:44.758Z,1011.97
2022-12-02T11:41:44.736Z,1012.02
2022-12-02T11:42:44.770Z,1012.03
2022-12-02T11:43:44.746Z,1012.00
2022-12-02T11:44:44.791Z,1012.01
2022-12-02T11:45:44.784Z,1012.02
2022-12-02T11:46:44.763Z,1011.97
2022-12-02T11:47:44.793Z,1011.98
2022-12-02T11:48:44.723Z,1011.96
2022-12-02T11:49:44.726Z,1011.93
2022-12-02T11:50:44.692Z,1011.95
2022-12-02T11:51:44.792Z,1011.84
2022-12-02T11:52:44.731Z,1011.88
2022-12-02T11:53:44.694Z,1011.84
2022-12-02T11:54:44.672Z,1011.88
2022-12-02T11:55:44.702Z,1011.89
2022-12-02T11:56:44.746Z,1011.99
2022-12-02T11:57:44.831Z,1011.90
2022-12-02T11:58:44.841Z,1011.95
2022-12-02T11:59:44.680Z,1011.97
2022-12-02T12:00:44.740Z,1011.90
2022-12-02T12:01:44.695Z,1011.93
2022-12-02T12:02:44.870Z,1011.87
2022-12-02T12:03:44.708Z,1011.86
2022-12-02T12:04:44.967Z,1011.87
2022-12-02T12:05:44.979Z,1011.86
2022-12-02T12:06:44.981Z,1011.87
2022-12-02T12:07:44.687Z,1011.81
2022-12-02T12:08:44.599Z,1011.82
2022-12-02T12:09:44.588Z,1011.83